createdAt,value
2023-03-22T00:03:39.334Z,99095.88
2023-03-22T00:08:03.051Z,99093.38
2023-03-22T00:12:27.035Z,99084.48
2023-03-22T00:16:41.200Z,99080.69
2023-03-22T00:21:05.143Z,99081.51
2023-03-22T00:25:28.872Z,99078.23
2023-03-22T00:29:52.611Z,99072.23
2023-03-22T00:34:16.336Z,99072.90
2023-03-22T00:38:42.837Z,99069.27
2023-03-22T00:43:07.282Z,99070.02
2023-03-22T00:47:31.056Z,99068.91
2023-03-22T00:51:54.829Z,99069.73
2023-03-22T00:56:18.748Z,99069.52
2023-03-22T01:00:42.662Z,99071.13
2023-03-22T01:05:06.563Z,99073.52
2023-03-22T01:09:30.384Z,99071.67
2023-03-22T01:13:54.156Z,99067.33
2023-03-22T01:18:18.011Z,99056.62
2023-03-22T01:22:41.821Z,99052.40
2023-03-22T01:27:05.832Z,99047.26
2023-03-22T01:31:29.631Z,99042.49
2023-03-22T01:35:53.434Z,99040.25
2023-03-22T01:40:17.276Z,99030.41
2023-03-22T01:44:46.980Z,99024.02
2023-03-22T01:49:10.791Z,99023.77
2023-03-22T01:53:34.645Z,99016.48
2023-03-22T01:57:58.424Z,99011.20
2023-03-22T02:02:22.258Z,99010.85
2023-03-22T02:06:49.351Z,99004.95
2023-03-22T02:11:13.132Z,99007.36
2023-03-22T02:15:37.022Z,98998.59
2023-03-22T02:20:12.813Z,98994.05
2023-03-22T02:24:51.938Z,98996.11
2023-03-22T02:29:23.653Z,98992.79
2023-03-22T02:33:41.540Z,98979.64
2023-03-22T02:38:17.429Z,98978.06
2023-03-22T02:42:42.776Z,98977.17
2023-03-22T02:47:09.585Z,98966.41
2023-03-22T02:51:36.268Z,98967.27
2023-03-22T02:56:11.782Z,98964.27
2023-03-22T03:00:35.542Z,98955.95
2023-03-22T03:04:59.344Z,98967.19
2023-03-22T03:09:23.263Z,98966.98
2023-03-22T03:13:46.755Z,98959.46
2023-03-22T03:18:15.874Z,98955.48
2023-03-22T03:22:58.150Z,98951.34
2023-03-22T03:27:34.077Z,98951.71
2023-03-22T03:31:58.007Z,98945.69
2023-03-22T03:36:25.599Z,98951.22
2023-03-22T03:40:49.619Z,98944.70
2023-03-22T03:45:13.443Z,98947.02
2023-03-22T03:49:30.958Z,98941.14
2023-03-22T03:53:44.537Z,98944.80
2023-03-22T03:58:08.317Z,98947.44
2023-03-22T04:02:32.242Z,98945.84
2023-03-22T04:06:56.063Z,98946.81
2023-03-22T04:11:20.014Z,98946.08
2023-03-22T04:15:43.837Z,98944.52
2023-03-22T04:20:07.568Z,98939.20
2023-03-22T04:24:31.352Z,98936.82
2023-03-22T04:28:55.164Z,98942.41
2023-03-22T04:33:18.914Z,98941.23
2023-03-22T04:37:41.157Z,98937.30
2023-03-22T04:41:57.679Z,98941.13
2023-03-22T04:46:14.318Z,98938.90
2023-03-22T04:50:30.676Z,98943.24
2023-03-22T04:54:54.408Z,98949.67
2023-03-22T04:59:18.268Z,98944.51
2023-03-22T05:03:42.132Z,98945.20
2023-03-22T05:08:05.999Z,98947.44
2023-03-22T05:12:29.968Z,98947.38
2023-03-22T05:17:08.902Z,98943.56
2023-03-22T05:21:32.948Z,98940.95
2023-03-22T05:25:56.811Z,98936.71
2023-03-22T05:30:20.782Z,98930.61
2023-03-22T05:34:50.222Z,98938.82
2023-03-22T05:39:17.120Z,98936.27
2023-03-22T05:43:39.798Z,98936.02
2023-03-22T05:48:03.713Z,98937.27
2023-03-22T05:52:27.577Z,98935.81
2023-03-22T05:56:51.440Z,98936.02
2023-03-22T06:01:15.364Z,98932.05
2023-03-22T06:05:42.106Z,98935.97
2023-03-22T06:10:06.042Z,98934.98
2023-03-22T06:14:29.940Z,98938.07
2023-03-22T06:19:00.345Z,98935.37
2023-03-22T06:23:24.268Z,98938.02
2023-03-22T06:27:48.205Z,98937.08
2023-03-22T06:32:12.200Z,98935.21
2023-03-22T06:36:35.979Z,98937.48
2023-03-22T06:40:59.723Z,98932.07
2023-03-22T06:45:23.478Z,98933.29
2023-03-22T06:49:47.269Z,98935.81
2023-03-22T06:54:11.162Z,98933.98
2023-03-22T06:58:34.971Z,98929.08
2023-03-22T07:02:58.495Z,98929.64
2023-03-22T07:07:25.181Z,98924.96
2023-03-22T07:11:52.004Z,98925.69
2023-03-22T07:16:18.106Z,98925.49
2023-03-22T07:20:45.156Z,98923.71
2023-03-22T07:25:08.979Z,98918.23
2023-03-22T07:29:31.605Z,98912.61
2023-03-22T07:33:55.421Z,98906.76
2023-03-22T07:38:19.344Z,98904.31
2023-03-22T07:42:43.144Z,98897.21
2023-03-22T07:47:12.949Z,98890.40
2023-03-22T07:51:36.771Z,98877.19
2023-03-22T07:56:00.684Z,98873.50
2023-03-22T08:00:24.438Z,98870.42
2023-03-22T08:04:51.137Z,98873.25
2023-03-22T08:09:18.680Z,98867.19
2023-03-22T08:13:42.766Z,98862.84
2023-03-22T08:18:06.539Z,98866.81
2023-03-22T08:22:30.386Z,98867.66
2023-03-22T08:26:52.734Z,98872.30
2023-03-22T08:31:22.332Z,98869.65
2023-03-22T08:35:46.374Z,98875.46
2023-03-22T08:40:10.424Z,98884.63
2023-03-22T08:44:43.286Z,98883.41
2023-03-22T08:49:07.290Z,98884.18
2023-03-22T08:53:37.356Z,98884.25
2023-03-22T08:58:05.694Z,98883.64
2023-03-22T09:02:29.454Z,98885.55
2023-03-22T09:06:53.291Z,98880.34
2023-03-22T09:11:17.995Z,98871.71
2023-03-22T09:15:42.256Z,98865.88
2023-03-22T09:20:14.556Z,98862.94
2023-03-22T09:24:33.676Z,98860.52
2023-03-22T09:28:52.789Z,98853.75
2023-03-22T09:33:16.753Z,98852.68
2023-03-22T09:37:40.609Z,98850.56
2023-03-22T09:42:06.985Z,98853.54
2023-03-22T09:46:37.159Z,98856.70
2023-03-22T09:50:49.798Z,98857.67
2023-03-22T09:55:19.652Z,98856.06
2023-03-22T09:59:42.753Z,98854.02
2023-03-22T10:04:22.172Z,98848.01
2023-03-22T10:08:53.681Z,98847.95
2023-03-22T10:13:26.548Z,98852.75
2023-03-22T10:17:50.287Z,98848.59
2023-03-22T10:22:14.028Z,98850.75
2023-03-22T10:26:37.876Z,98847.49
2023-03-22T10:31:08.051Z,98841.20
2023-03-22T10:35:11.553Z,98842.46
2023-03-22T10:39:29.154Z,98841.95
2023-03-22T10:43:52.944Z,98836.68
2023-03-22T10:48:19.265Z,98835.93
2023-03-22T10:52:43.560Z,98831.10
2023-03-22T10:57:07.493Z,98833.33
2023-03-22T11:01:31.486Z,98824.98
2023-03-22T11:06:01.212Z,98821.26
2023-03-22T11:10:25.024Z,98819.58
2023-03-22T11:14:54.624Z,98808.50
2023-03-22T11:19:17.879Z,98796.20
2023-03-22T11:23:41.693Z,98794.74
2023-03-22T11:28:08.041Z,98786.45
2023-03-22T11:32:40.754Z,98776.41
2023-03-22T11:37:04.664Z,98768.59
2023-03-22T11:41:28.264Z,98758.23
2023-03-22T11:45:54.881Z,98752.71
2023-03-22T11:50:27.853Z,98749.70
2023-03-22T11:54:51.621Z,98738.76
2023-03-22T11:59:27.860Z,98743.45
2023-03-22T12:03:51.789Z,98741.87
2023-03-22T12:08:15.775Z,98735.17
2023-03-22T12:12:42.573Z,98734.16
2023-03-22T12:17:06.472Z,98731.18
2023-03-22T12:21:32.897Z,98724.90
2023-03-22T12:25:56.656Z,98725.23
2023-03-22T12:30:20.416Z,98720.08
2023-03-22T12:34:44.314Z,98718.45
2023-03-22T12:39:08.230Z,98713.08
2023-03-22T12:43:41.112Z,98706.77
2023-03-22T12:48:20.082Z,98702.98
2023-03-22T12:52:45.606Z,98700.11
2023-03-22T12:57:12.952Z,98706.69
2023-03-22T13:01:39.878Z,98703.02
2023-03-22T13:06:04.279Z,98697.61
2023-03-22T13:10:30.795Z,98695.04
2023-03-22T13:14:54.675Z,98692.45
2023-03-22T13:19:40.108Z,98686.29
2023-03-22T13:24:06.659Z,98681.10
2023-03-22T13:28:32.015Z,98680.25
2023-03-22T13:33:01.895Z,98675.86
2023-03-22T13:37:05.422Z,98671.57
2023-03-22T13:41:47.204Z,98662.77
2023-03-22T13:46:11.170Z,98657.98
2023-03-22T13:50:41.087Z,98653.09
2023-03-22T13:55:07.841Z,98659.45
2023-03-22T13:59:34.338Z,98658.58
2023-03-22T14:03:58.183Z,98648.30
2023-03-22T14:08:22.137Z,98640.11
2023-03-22T14:12:49.743Z,98634.98
2023-03-22T14:17:19.548Z,98631.15
2023-03-22T14:21:46.089Z,98636.02
